Time;durP1;ratioP1;P1;durP2;ratioP2;P2;SDS_P1;SDS_P2;PMS_P1;PMS_P2;Temp;Humidity;BMP_temperature;BMP_pressure;BME280_temperature;BME280_humidity;BME280_pressure;Samples;Min_cycle;Max_cycle;Signal;HPM_P1;HPM_P2
2024/04/01 00:01:57;;;;;;;46.17;5.05;;;16.70;91.60;;;;;;4826045;29;20124;-90
2024/04/01 00:04:24;;;;;;;37.17;3.58;;;16.70;91.70;;;;;;4804718;29;20506;-90
2024/04/01 00:06:52;;;;;;;38.42;5.00;;;16.70;91.70;;;;;;4814911;29;20046;-90
2024/04/01 00:09:21;;;;;;;36.00;4.60;;;16.70;91.70;;;;;;4792264;29;20133;-90
2024/04/01 00:11:49;;;;;;;28.83;4.28;;;16.60;91.80;;;;;;4779526;29;20452;-88
2024/04/01 00:14:16;;;;;;;36.90;3.85;;;16.60;91.90;;;;;;4824040;29;20080;-88
2024/04/01 00:16:44;;;;;;;32.33;3.63;;;16.60;92.00;;;;;;4819217;29;20086;-91
2024/04/01 00:19:10;;;;;;;32.00;3.42;;;16.70;92.00;;;;;;4826256;29;20069;-87
2024/04/01 00:21:38;;;;;;;38.28;4.90;;;16.60;91.90;;;;;;4829079;29;20128;-87
2024/04/01 00:24:06;;;;;;;38.13;4.82;;;16.60;91.90;;;;;;4805086;29;20157;-88
2024/04/01 00:26:35;;;;;;;38.53;4.15;;;16.60;92.00;;;;;;4833730;29;20046;-90
2024/04/01 00:29:02;;;;;;;40.28;5.05;;;16.50;92.20;;;;;;4821843;29;20466;-90
2024/04/01 00:31:29;;;;;;;28.13;4.55;;;16.50;92.30;;;;;;4812969;29;20030;-88
2024/04/01 00:33:57;;;;;;;39.08;5.60;;;16.50;92.50;;;;;;4807885;29;20451;-91
2024/04/01 00:36:25;;;;;;;46.58;5.63;;;16.50;92.50;;;;;;4817801;29;20136;-92
2024/04/01 00:38:55;;;;;;;44.05;4.75;;;16.50;92.50;;;;;;4807289;29;20054;-90
2024/04/01 00:41:22;;;;;;;26.67;3.75;;;16.50;92.60;;;;;;4796232;29;20078;-89
2024/04/01 00:43:52;;;;;;;32.97;4.07;;;16.50;92.70;;;;;;4821824;29;20063;-91
2024/04/01 00:46:19;;;;;;;33.22;5.18;;;16.50;92.70;;;;;;4809726;29;20045;-93
2024/04/01 00:48:48;;;;;;;29.77;4.53;;;16.60;92.70;;;;;;4832640;29;20072;-88
2024/04/01 00:51:16;;;;;;;37.83;4.35;;;16.60;92.70;;;;;;4799308;29;20161;-89
2024/04/01 00:53:44;;;;;;;32.72;3.60;;;16.60;92.60;;;;;;4824498;29;20162;-92
2024/04/01 00:56:13;;;;;;;31.48;4.90;;;16.60;92.50;;;;;;4813640;29;20052;-89
2024/04/01 00:58:41;;;;;;;37.10;5.63;;;16.60;92.60;;;;;;4814332;29;20050;-91
2024/04/01 01:01:10;;;;;;;38.22;5.57;;;16.60;92.40;;;;;;4796979;29;20070;-89
2024/04/01 01:03:39;;;;;;;33.30;4.25;;;16.60;92.40;;;;;;4820419;29;20088;-91
2024/04/01 01:06:08;;;;;;;45.10;5.00;;;16.60;92.30;;;;;;4825517;29;20052;-90
2024/04/01 01:08:37;;;;;;;37.60;4.57;;;16.60;92.10;;;;;;4799348;29;20057;-89
2024/04/01 01:11:04;;;;;;;44.55;5.75;;;16.60;92.10;;;;;;4830233;29;20072;-88
2024/04/01 01:13:32;;;;;;;75.28;6.05;;;16.60;91.90;;;;;;4804216;29;20042;-87
2024/04/01 01:15:59;;;;;;;41.20;5.50;;;16.60;92.10;;;;;;4830772;29;20041;-88
2024/04/01 01:18:29;;;;;;;27.42;3.65;;;16.50;92.20;;;;;;4826478;29;20049;-90
2024/04/01 01:20:56;;;;;;;32.00;3.92;;;16.50;92.40;;;;;;4828517;29;20129;-89
2024/04/01 01:23:26;;;;;;;37.28;4.82;;;16.50;92.60;;;;;;4831283;29;20042;-89
2024/04/01 01:25:53;;;;;;;36.20;3.30;;;16.50;92.60;;;;;;4808023;29;20049;-87
2024/04/01 01:28:22;;;;;;;45.60;5.10;;;16.40;92.60;;;;;;4827118;29;20118;-86
2024/04/01 01:30:49;;;;;;;40.47;5.13;;;16.40;92.50;;;;;;4829891;29;20042;-86
2024/04/01 01:33:17;;;;;;;46.55;4.53;;;16.40;92.60;;;;;;4813414;29;20065;-90
2024/04/01 01:35:44;;;;;;;36.70;4.80;;;16.30;92.60;;;;;;4808141;29;20108;-89
2024/04/01 01:38:14;;;;;;;33.08;4.97;;;16.30;92.60;;;;;;4810169;29;20082;-86
2024/04/01 01:40:43;;;;;;;43.17;4.20;;;16.30;92.50;;;;;;4813242;29;20042;-85
2024/04/01 01:43:11;;;;;;;51.78;5.72;;;16.30;92.70;;;;;;4824769;29;20038;-88
2024/04/01 01:45:38;;;;;;;32.03;3.88;;;16.30;92.60;;;;;;4827054;29;20049;-88
2024/04/01 01:48:07;;;;;;;43.70;5.30;;;16.30;92.50;;;;;;4806346;29;20052;-87
2024/04/01 01:50:33;;;;;;;46.03;5.20;;;16.20;92.50;;;;;;4810399;29;20145;-86
2024/04/01 01:53:01;;;;;;;45.50;5.47;;;16.30;92.60;;;;;;4823328;29;20042;-91
2024/04/01 01:55:28;;;;;;;40.28;5.32;;;16.20;92.40;;;;;;4812992;29;20042;-88
2024/04/01 01:57:58;;;;;;;31.60;4.75;;;16.20;92.40;;;;;;4828798;29;20053;-88
2024/04/01 02:00:24;;;;;;;40.67;4.03;;;16.20;92.60;;;;;;4814711;29;20065;-83
2024/04/01 02:02:53;;;;;;;58.13;6.10;;;16.20;92.40;;;;;;4812695;29;20050;-85
2024/04/01 02:05:20;;;;;;;40.45;5.05;;;16.30;92.00;;;;;;4824815;29;20049;-87
2024/04/01 02:07:47;;;;;;;42.88;6.72;;;16.30;92.00;;;;;;4804734;29;20041;-84
2024/04/01 02:10:14;;;;;;;35.83;4.78;;;16.30;91.80;;;;;;4809699;29;20137;-89
2024/04/01 02:12:49;;;;;;;44.55;5.43;;;16.30;91.80;;;;;;4803177;29;20089;-86
2024/04/01 02:15:19;;;;;;;35.75;4.53;;;16.20;91.70;;;;;;4797022;29;20045;-90
2024/04/01 02:17:48;;;;;;;44.17;5.65;;;16.30;91.50;;;;;;4812345;29;20540;-87
2024/04/01 02:20:15;;;;;;;40.47;5.03;;;16.20;91.60;;;;;;4823480;29;20049;-90
2024/04/01 02:22:45;;;;;;;55.55;6.72;;;16.20;91.50;;;;;;4796767;29;20054;-90
2024/04/01 02:25:12;;;;;;;58.38;6.78;;;16.30;91.30;;;;;;4802100;29;20444;-87
2024/04/01 02:27:40;;;;;;;44.13;6.88;;;16.30;91.10;;;;;;4830530;29;20130;-87
2024/04/01 02:30:07;;;;;;;40.47;5.07;;;16.40;91.00;;;;;;4811516;29;20054;-90
2024/04/01 02:32:37;;;;;;;36.22;5.43;;;16.30;91.00;;;;;;4807865;29;20057;-90
2024/04/01 02:35:04;;;;;;;49.55;5.18;;;16.30;91.00;;;;;;4807535;29;20054;-91
2024/04/01 02:37:32;;;;;;;44.55;6.38;;;16.30;90.90;;;;;;4813968;29;20038;-87
2024/04/01 02:39:59;;;;;;;38.50;5.15;;;16.30;90.90;;;;;;4820583;29;20049;-91
2024/04/01 02:42:27;;;;;;;43.65;4.80;;;16.30;90.80;;;;;;4802988;29;20136;-90
2024/04/01 02:44:54;;;;;;;49.63;5.60;;;16.20;90.80;;;;;;4840840;29;20057;-89
2024/04/01 02:47:22;;;;;;;41.58;5.38;;;16.20;90.90;;;;;;4820056;29;20056;-91
2024/04/01 02:49:50;;;;;;;41.63;6.57;;;16.20;90.90;;;;;;4803237;29;20598;-88
2024/04/01 02:52:20;;;;;;;53.20;6.35;;;16.10;90.90;;;;;;4804304;29;20085;-92
2024/04/01 02:54:47;;;;;;;36.90;6.40;;;16.10;90.80;;;;;;4821743;29;20057;-91
2024/04/01 02:57:14;;;;;;;43.53;6.03;;;16.10;90.80;;;;;;4813985;29;20042;-91
2024/04/01 02:59:41;;;;;;;51.38;5.35;;;16.10;90.70;;;;;;4809813;29;20049;-89
2024/04/01 03:02:10;;;;;;;38.05;6.32;;;16.10;90.60;;;;;;4803425;29;20141;-93
2024/04/01 03:04:37;;;;;;;54.00;6.25;;;16.10;90.50;;;;;;4807387;29;20042;-88
2024/04/01 03:07:08;;;;;;;49.20;7.03;;;16.00;90.60;;;;;;4809870;29;20042;-92
2024/04/01 03:09:35;;;;;;;40.40;5.82;;;16.00;90.50;;;;;;4815461;29;20069;-88
2024/04/01 03:12:04;;;;;;;48.53;6.97;;;16.00;90.60;;;;;;4826677;29;20053;-92
2024/04/01 03:14:31;;;;;;;39.38;7.60;;;15.90;90.50;;;;;;4792685;29;20503;-88
2024/04/01 03:16:58;;;;;;;35.53;5.60;;;15.90;90.60;;;;;;4806721;29;20081;-87
2024/04/01 03:19:25;;;;;;;27.83;5.38;;;15.90;90.50;;;;;;4801389;29;20110;-88
2024/04/01 03:21:52;;;;;;;47.33;7.57;;;15.90;90.50;;;;;;4836131;29;20045;-92
2024/04/01 03:24:21;;;;;;;41.60;6.03;;;15.90;90.40;;;;;;4815877;29;20043;-88
2024/04/01 03:26:49;;;;;;;45.97;6.22;;;16.00;90.30;;;;;;4803386;29;20046;-90
2024/04/01 03:29:16;;;;;;;38.30;5.30;;;16.00;90.20;;;;;;4810546;29;20054;-89
2024/04/01 03:31:44;;;;;;;27.38;4.82;;;16.00;90.20;;;;;;4802357;29;20050;-88
2024/04/01 03:34:10;;;;;;;42.22;6.32;;;16.00;90.10;;;;;;4807056;29;20052;-90
2024/04/01 03:36:38;;;;;;;44.22;6.47;;;16.00;90.00;;;;;;4811468;29;20133;-89
2024/04/01 03:39:08;;;;;;;33.33;5.13;;;16.00;90.00;;;;;;4822611;29;20038;-91
2024/04/01 03:41:38;;;;;;;35.25;4.13;;;16.00;89.90;;;;;;4820317;29;20050;-91
2024/04/01 03:44:06;;;;;;;52.75;7.65;;;16.00;90.00;;;;;;4806292;29;20141;-85
2024/04/01 03:46:32;;;;;;;27.00;4.25;;;16.00;90.10;;;;;;4808740;29;20122;-89
2024/04/01 03:49:00;;;;;;;30.10;5.43;;;16.00;89.40;;;;;;4809988;29;20051;-91
2024/04/01 03:51:27;;;;;;;40.53;5.13;;;16.00;89.50;;;;;;4805501;29;20056;-93
2024/04/01 03:53:55;;;;;;;45.15;5.82;;;16.00;89.50;;;;;;4792893;29;20073;-89
2024/04/01 03:56:23;;;;;;;35.50;4.40;;;16.00;89.10;;;;;;4826024;29;20106;-95
2024/04/01 03:58:52;;;;;;;28.00;3.80;;;16.10;88.60;;;;;;4853589;29;20045;-88
2024/04/01 04:01:19;;;;;;;38.95;5.78;;;16.20;87.50;;;;;;4809524;29;20049;-89
2024/04/01 04:03:46;;;;;;;32.85;4.30;;;16.10;87.70;;;;;;4820467;29;20052;-86
2024/04/01 04:06:14;;;;;;;31.40;4.55;;;16.20;87.00;;;;;;4807276;29;20081;-88
2024/04/01 04:08:47;;;;;;;32.75;3.95;;;16.20;86.80;;;;;;4824546;29;20046;-90
2024/04/01 04:11:15;;;;;;;39.17;5.50;;;16.20;86.90;;;;;;4810631;29;20137;-90
2024/04/01 04:13:42;;;;;;;27.25;3.03;;;16.90;87.10;;;;;;4816244;29;20046;-92
2024/04/01 04:16:12;;;;;;;29.38;3.60;;;16.20;87.00;;;;;;4816381;29;20044;-90
2024/04/01 04:18:39;;;;;;;28.80;3.40;;;16.10;87.50;;;;;;4803517;29;20050;-88
2024/04/01 04:21:10;;;;;;;30.52;4.30;;;16.10;88.00;;;;;;4838595;29;20056;-91
2024/04/01 04:23:37;;;;;;;27.47;4.00;;;16.10;88.00;;;;;;4817219;29;20523;-90
2024/04/01 04:26:08;;;;;;;30.63;3.63;;;16.10;87.90;;;;;;4814162;29;20058;-87
2024/04/01 04:28:35;;;;;;;15.23;5.03;;;16.00;88.00;;;;;;4809878;29;20057;-90
2024/04/01 04:31:03;;;;;;;25.00;3.20;;;16.10;88.30;;;;;;4818336;29;20046;-91
2024/04/01 04:33:31;;;;;;;28.83;3.78;;;16.10;88.30;;;;;;4820107;29;20107;-90
2024/04/01 04:35:59;;;;;;;33.13;4.15;;;16.00;88.80;;;;;;4825068;29;20570;-92
2024/04/01 04:38:26;;;;;;;24.45;3.45;;;16.00;88.70;;;;;;4824075;29;20103;-91
2024/04/01 04:40:54;;;;;;;27.75;4.30;;;16.00;88.60;;;;;;4813722;29;20045;-86
2024/04/01 04:43:21;;;;;;;39.85;5.07;;;16.00;88.50;;;;;;4816889;29;20048;-91
2024/04/01 04:45:49;;;;;;;26.73;3.15;;;16.00;88.60;;;;;;4830224;29;20062;-90
2024/04/01 04:48:16;;;;;;;23.90;3.33;;;16.00;89.30;;;;;;4801457;29;20483;-90
2024/04/01 04:50:45;;;;;;;24.40;3.47;;;16.00;88.90;;;;;;4819623;29;20136;-88
2024/04/01 04:53:12;;;;;;;34.72;4.18;;;16.00;88.60;;;;;;4818052;29;20045;-85
2024/04/01 04:55:41;;;;;;;23.90;4.28;;;16.10;88.30;;;;;;4821756;29;20043;-85
2024/04/01 04:58:09;;;;;;;29.45;4.45;;;16.20;87.40;;;;;;4804912;29;20050;-83
2024/04/01 05:00:37;;;;;;;25.13;2.97;;;16.40;85.90;;;;;;4783430;29;20045;-85
2024/04/01 05:03:05;;;;;;;19.73;3.05;;;16.40;85.60;;;;;;4797665;29;20137;-87
2024/04/01 05:05:34;;;;;;;34.72;4.82;;;16.50;85.00;;;;;;4820554;29;20057;-84
2024/04/01 05:08:03;;;;;;;24.10;4.78;;;16.50;84.50;;;;;;4804305;29;20045;-88
2024/04/01 05:10:31;;;;;;;29.65;4.93;;;16.60;84.30;;;;;;4810946;29;20398;-84
2024/04/01 05:12:59;;;;;;;21.73;2.97;;;16.60;84.00;;;;;;4825471;29;20053;-87
2024/04/01 05:15:28;;;;;;;27.95;2.60;;;16.60;83.90;;;;;;4795130;29;20145;-84
2024/04/01 05:17:56;;;;;;;26.73;3.90;;;16.70;84.10;;;;;;4841244;29;20080;-85
2024/04/01 05:20:24;;;;;;;29.88;3.85;;;16.70;84.10;;;;;;4810530;29;20054;-86
2024/04/01 05:22:50;;;;;;;21.27;3.05;;;16.80;83.40;;;;;;4808945;29;20053;-89
2024/04/01 05:25:20;;;;;;;25.98;3.20;;;16.80;83.70;;;;;;4806622;29;20919;-84
2024/04/01 05:27:47;;;;;;;18.80;2.63;;;16.80;84.00;;;;;;4822155;29;20086;-85
2024/04/01 05:30:17;;;;;;;22.23;4.60;;;16.80;83.80;;;;;;4836664;29;20045;-88
2024/04/01 05:32:44;;;;;;;29.67;4.72;;;16.90;83.40;;;;;;4841079;29;20141;-88
2024/04/01 05:35:16;;;;;;;31.27;4.10;;;16.80;83.90;;;;;;4820368;29;20137;-88
2024/04/01 05:37:43;;;;;;;28.95;3.90;;;16.90;83.20;;;;;;4825097;29;20082;-86
2024/04/01 05:40:12;;;;;;;22.98;2.80;;;16.90;83.80;;;;;;4824881;29;20121;-89
2024/04/01 05:42:41;;;;;;;18.83;2.50;;;17.00;83.00;;;;;;4809842;29;20137;-87
2024/04/01 05:45:09;;;;;;;32.78;4.35;;;17.10;83.40;;;;;;4812727;29;20097;-89
2024/04/01 05:47:36;;;;;;;28.88;3.80;;;17.10;83.10;;;;;;4806450;29;20514;-87
2024/04/01 05:50:04;;;;;;;34.20;4.65;;;17.20;82.70;;;;;;4820648;29;20038;-89
2024/04/01 05:52:31;;;;;;;27.15;3.42;;;17.20;82.70;;;;;;4820107;29;20077;-89
2024/04/01 05:55:00;;;;;;;28.48;4.53;;;17.20;82.50;;;;;;4815301;29;20046;-84
2024/04/01 05:57:27;;;;;;;33.10;3.22;;;17.40;81.60;;;;;;4823084;29;20045;-86
2024/04/01 05:59:58;;;;;;;21.60;2.67;;;17.40;81.30;;;;;;4811665;29;20046;-83
2024/04/01 06:02:25;;;;;;;27.52;2.70;;;17.50;81.10;;;;;;4815609;29;20133;-89
2024/04/01 06:04:53;;;;;;;37.15;3.95;;;17.60;80.60;;;;;;4809741;29;20137;-87
2024/04/01 06:07:20;;;;;;;23.77;3.20;;;17.70;80.10;;;;;;4820926;29;20402;-85
2024/04/01 06:09:48;;;;;;;23.35;2.92;;;17.70;80.30;;;;;;4809326;29;20475;-86
2024/04/01 06:12:15;;;;;;;27.65;3.65;;;17.80;79.70;;;;;;4817828;29;20074;-91
2024/04/01 06:14:43;;;;;;;30.17;3.42;;;17.80;79.60;;;;;;4816590;29;20144;-87
2024/04/01 06:17:11;;;;;;;31.73;3.13;;;17.90;79.90;;;;;;4823807;29;20132;-85
2024/04/01 06:19:39;;;;;;;30.25;3.58;;;17.90;80.10;;;;;;4811773;29;20042;-89
2024/04/01 06:22:06;;;;;;;25.40;4.43;;;17.90;80.20;;;;;;4805645;29;20137;-85
2024/04/01 06:24:34;;;;;;;33.78;3.33;;;18.00;79.80;;;;;;4805811;29;20082;-85
2024/04/01 06:27:01;;;;;;;31.13;3.95;;;18.00;80.00;;;;;;4804990;29;20049;-85
2024/04/01 06:29:29;;;;;;;29.40;3.05;;;18.00;80.30;;;;;;4809373;29;20109;-85
2024/04/01 06:31:55;;;;;;;40.00;5.40;;;18.10;79.70;;;;;;4823358;29;20038;-86
2024/04/01 06:34:25;;;;;;;27.73;3.03;;;18.20;79.80;;;;;;4803435;29;20045;-85
2024/04/01 06:36:51;;;;;;;32.97;4.30;;;18.20;80.30;;;;;;4824724;29;20149;-85
2024/04/01 06:39:19;;;;;;;28.90;4.35;;;18.30;79.30;;;;;;4805665;29;20133;-84
2024/04/01 06:41:46;;;;;;;32.25;3.78;;;18.40;78.60;;;;;;4805080;29;20076;-84
2024/04/01 06:44:15;;;;;;;33.47;3.70;;;18.50;78.90;;;;;;4830621;29;20052;-82
2024/04/01 06:46:42;;;;;;;34.67;4.32;;;18.50;78.70;;;;;;4801329;29;20574;-82
2024/04/01 06:49:10;;;;;;;24.85;3.33;;;18.50;78.60;;;;;;4803197;29;20121;-87
2024/04/01 06:51:38;;;;;;;32.97;4.63;;;18.60;77.10;;;;;;4824432;29;20462;-83
2024/04/01 06:54:06;;;;;;;24.65;3.58;;;18.60;77.10;;;;;;4825024;29;20149;-85
2024/04/01 06:56:33;;;;;;;33.95;4.88;;;18.70;76.70;;;;;;4805321;29;20141;-88
2024/04/01 06:59:01;;;;;;;27.73;3.83;;;18.70;76.80;;;;;;4810883;29;20069;-84
2024/04/01 07:01:29;;;;;;;30.05;3.88;;;18.80;77.10;;;;;;4820138;29;20106;-87
2024/04/01 07:03:58;;;;;;;35.17;4.75;;;18.90;76.60;;;;;;4823122;29;20045;-86
2024/04/01 07:06:24;;;;;;;36.22;4.93;;;19.00;76.40;;;;;;4807461;29;20045;-82
2024/04/01 07:08:55;;;;;;;31.88;4.20;;;19.00;76.10;;;;;;4815317;29;20170;-88
2024/04/01 07:11:22;;;;;;;24.05;2.75;;;19.10;76.80;;;;;;4814517;29;20056;-85
2024/04/01 07:13:50;;;;;;;23.17;2.92;;;19.10;76.60;;;;;;4809340;29;20265;-85
2024/04/01 07:16:16;;;;;;;30.35;3.92;;;19.20;76.00;;;;;;4797310;29;20123;-85
2024/04/01 07:18:45;;;;;;;30.80;4.43;;;19.10;76.50;;;;;;4818106;29;20052;-87
2024/04/01 07:21:11;;;;;;;22.60;2.30;;;19.00;75.50;;;;;;4809130;29;20042;-85
2024/04/01 07:23:39;;;;;;;51.05;5.85;;;19.00;76.60;;;;;;4810784;29;20074;-84
2024/04/01 07:26:08;;;;;;;31.90;3.40;;;19.10;76.20;;;;;;4802953;29;20125;-85
2024/04/01 07:28:35;;;;;;;36.28;4.78;;;19.20;76.70;;;;;;4812944;29;20058;-85
2024/04/01 07:31:03;;;;;;;37.35;4.75;;;19.30;76.80;;;;;;4821971;29;20057;-83
2024/04/01 07:33:31;;;;;;;38.78;5.15;;;19.40;76.60;;;;;;4813750;29;20149;-84
2024/04/01 07:35:59;;;;;;;41.35;5.78;;;19.90;76.40;;;;;;4831035;29;20050;-88
2024/04/01 07:38:26;;;;;;;35.53;4.05;;;19.50;76.60;;;;;;4816349;29;20045;-86
2024/04/01 07:40:53;;;;;;;36.10;4.65;;;19.60;76.40;;;;;;4823582;29;20046;-85
2024/04/01 07:43:22;;;;;;;32.22;3.22;;;19.60;76.30;;;;;;4812931;29;20053;-83
2024/04/01 07:45:51;;;;;;;26.25;3.88;;;19.50;76.30;;;;;;4804731;29;20691;-86
2024/04/01 07:48:19;;;;;;;46.00;4.75;;;19.60;76.60;;;;;;4819528;29;20473;-84
2024/04/01 07:50:46;;;;;;;39.35;4.95;;;19.70;76.50;;;;;;4810108;29;20506;-82
2024/04/01 07:53:14;;;;;;;30.55;5.18;;;19.70;76.10;;;;;;4804951;29;20150;-86
2024/04/01 07:55:41;;;;;;;38.15;7.10;;;19.80;76.40;;;;;;4809425;29;20054;-86
2024/04/01 07:58:09;;;;;;;35.35;4.15;;;19.80;76.80;;;;;;4824871;29;20049;-86
2024/04/01 08:00:38;;;;;;;23.40;3.83;;;19.70;76.90;;;;;;4818684;29;20509;-84
2024/04/01 08:03:06;;;;;;;42.22;4.30;;;19.90;76.60;;;;;;4804138;29;20045;-88
2024/04/01 08:05:33;;;;;;;33.17;4.15;;;20.10;76.80;;;;;;4807384;29;20038;-87
2024/04/01 08:08:01;;;;;;;31.15;2.95;;;20.20;76.90;;;;;;4827416;29;20043;-84
2024/04/01 08:10:28;;;;;;;39.13;5.32;;;20.30;76.60;;;;;;4812588;29;20054;-90
2024/04/01 08:12:56;;;;;;;40.88;3.92;;;20.50;76.80;;;;;;4822933;29;20067;-86
2024/04/01 08:15:23;;;;;;;26.92;4.22;;;20.60;77.30;;;;;;4810416;29;20057;-84
2024/04/01 08:17:53;;;;;;;34.88;3.60;;;20.90;77.00;;;;;;4826531;29;20056;-84
2024/04/01 08:20:19;;;;;;;42.90;6.03;;;20.90;75.00;;;;;;4813004;29;20101;-84
2024/04/01 08:22:47;;;;;;;39.08;4.75;;;21.10;75.50;;;;;;4808378;29;20044;-85
2024/04/01 08:25:15;;;;;;;38.35;6.45;;;21.30;74.20;;;;;;4824083;29;20038;-83
2024/04/01 08:27:43;;;;;;;38.33;5.38;;;21.40;74.90;;;;;;4817536;29;20038;-82
2024/04/01 08:30:10;;;;;;;34.47;5.38;;;21.50;74.00;;;;;;4819753;29;20049;-83
2024/04/01 08:32:38;;;;;;;45.63;6.13;;;21.70;73.70;;;;;;4808834;29;20641;-84
2024/04/01 08:35:07;;;;;;;43.30;6.78;;;21.90;74.20;;;;;;4815733;29;20053;-81
2024/04/01 08:37:35;;;;;;;44.25;5.53;;;22.10;74.20;;;;;;4797498;29;20200;-84
2024/04/01 08:40:02;;;;;;;40.08;5.55;;;22.20;73.60;;;;;;4786089;29;20043;-87
2024/04/01 08:42:34;;;;;;;41.97;6.00;;;22.20;73.90;;;;;;4806993;29;20050;-86
2024/04/01 08:45:05;;;;;;;38.88;4.75;;;22.30;74.30;;;;;;4814443;29;20652;-82
2024/04/01 08:47:36;;;;;;;40.28;6.93;;;22.50;73.50;;;;;;4822085;29;20042;-84
2024/04/01 08:50:04;;;;;;;48.88;6.32;;;22.50;71.70;;;;;;4795038;29;20053;-87
2024/04/01 08:52:44;;;;;;;41.45;4.95;;;22.80;72.10;;;;;;4803148;29;20054;-86
2024/04/01 08:55:11;;;;;;;37.55;4.93;;;22.80;70.40;;;;;;4822384;29;20058;-81
2024/04/01 08:57:39;;;;;;;47.80;5.65;;;22.90;71.30;;;;;;4811208;29;20482;-85
2024/04/01 09:00:08;;;;;;;42.85;6.20;;;23.00;70.50;;;;;;4799867;29;20129;-82
2024/04/01 09:02:36;;;;;;;33.28;4.85;;;23.00;70.00;;;;;;4795683;29;20053;-84
2024/04/01 09:05:03;;;;;;;57.55;7.47;;;22.90;70.30;;;;;;4816770;29;20042;-84
2024/04/01 09:07:30;;;;;;;26.77;4.13;;;22.90;70.60;;;;;;4823558;29;20042;-86
2024/04/01 09:09:58;;;;;;;50.03;7.13;;;23.00;70.20;;;;;;4808944;29;20053;-83
2024/04/01 09:12:28;;;;;;;57.08;6.68;;;22.80;70.30;;;;;;4805854;29;20079;-84
2024/04/01 09:14:55;;;;;;;59.22;7.28;;;22.60;70.00;;;;;;4807797;29;20056;-85
2024/04/01 09:17:26;;;;;;;49.75;7.07;;;22.90;71.30;;;;;;4822999;29;20049;-84
2024/04/01 09:19:59;;;;;;;53.42;7.35;;;23.10;70.80;;;;;;4828180;29;20060;-86
2024/04/01 09:22:27;;;;;;;55.08;9.10;;;23.20;68.90;;;;;;4816902;29;20058;-82
2024/04/01 09:24:54;;;;;;;39.78;6.65;;;23.20;69.10;;;;;;4814226;29;20080;-90
2024/04/01 09:27:25;;;;;;;45.88;6.43;;;23.20;67.90;;;;;;4803795;29;20388;-86
2024/04/01 09:29:53;;;;;;;68.20;8.23;;;23.30;68.00;;;;;;4821466;29;20061;-87
2024/04/01 09:32:20;;;;;;;44.20;6.32;;;23.50;68.80;;;;;;4806505;29;20057;-85
2024/04/01 09:34:48;;;;;;;44.38;6.57;;;23.60;68.60;;;;;;4825387;29;20041;-87
2024/04/01 09:37:15;;;;;;;44.60;6.97;;;23.80;69.10;;;;;;4824019;29;20057;-87
2024/04/01 09:39:44;;;;;;;36.58;5.28;;;23.90;68.70;;;;;;4819484;29;20099;-86
2024/04/01 09:42:11;;;;;;;51.10;7.05;;;23.90;67.90;;;;;;4812029;29;20077;-85
2024/04/01 09:44:42;;;;;;;36.03;4.35;;;23.90;68.90;;;;;;4807567;29;20137;-84
2024/04/01 09:47:09;;;;;;;50.42;6.22;;;24.00;68.60;;;;;;4821416;29;20051;-87
2024/04/01 09:49:37;;;;;;;45.08;6.07;;;23.90;67.90;;;;;;4818576;29;20047;-87
2024/04/01 09:52:05;;;;;;;51.45;7.82;;;23.90;68.00;;;;;;4806246;29;20150;-86
2024/04/01 09:54:33;;;;;;;60.17;6.60;;;24.00;68.50;;;;;;4820400;29;20064;-85
2024/04/01 09:57:34;;;;;;;53.35;6.95;;;24.10;68.20;;;;;;4812232;29;20044;-86
2024/04/01 10:00:16;;;;;;;59.08;8.75;;;24.10;67.30;;;;;;4794623;29;20112;-85
2024/04/01 10:03:24;;;;;;;65.68;7.78;;;24.30;67.10;;;;;;4811719;29;20507;-86
2024/04/01 10:06:30;;;;;;;51.45;7.07;;;24.30;66.90;;;;;;4816176;29;20461;-83
2024/04/01 10:09:32;;;;;;;48.22;6.85;;;24.50;67.00;;;;;;4811905;29;20105;-85
2024/04/01 10:12:21;;;;;;;45.95;7.70;;;24.50;66.60;;;;;;4816977;29;20145;-88
2024/04/01 10:15:15;;;;;;;53.50;7.43;;;24.50;65.90;;;;;;4814050;29;20145;-87
2024/04/01 10:18:02;;;;;;;51.60;7.88;;;24.60;66.80;;;;;;4809787;29;20060;-87
2024/04/01 10:20:55;;;;;;;47.47;8.02;;;24.60;65.50;;;;;;4796335;29;20056;-83
2024/04/01 10:23:52;;;;;;;49.80;6.13;;;24.60;64.90;;;;;;4818840;29;20138;-88
2024/04/01 10:26:51;;;;;;;49.50;7.22;;;24.40;65.60;;;;;;4834889;29;20050;-87
2024/04/01 10:30:10;;;;;;;48.50;7.60;;;24.40;65.10;;;;;;4820454;29;20058;-85
2024/04/01 10:33:26;;;;;;;59.92;6.65;;;24.50;65.50;;;;;;4831406;29;20061;-88
2024/04/01 10:36:19;;;;;;;67.90;8.50;;;24.70;66.50;;;;;;4768413;29;20062;-87
2024/04/01 10:39:19;;;;;;;62.67;8.80;;;24.60;65.30;;;;;;4829975;29;20077;-92
2024/04/01 10:42:22;;;;;;;54.30;7.22;;;24.70;64.40;;;;;;4827381;29;20140;-88
2024/04/01 10:45:37;;;;;;;65.05;8.43;;;25.00;64.70;;;;;;4807582;29;20046;-87
2024/04/01 10:48:19;;;;;;;55.90;8.85;;;24.80;63.70;;;;;;4751446;30;20809;-87
2024/04/01 10:51:22;;;;;;;62.00;8.35;;;25.00;64.20;;;;;;4802847;29;20665;-88
2024/04/01 10:54:05;;;;;;;56.78;7.55;;;25.10;64.60;;;;;;4812947;29;20372;-87
2024/04/01 10:57:22;;;;;;;54.30;8.50;;;25.10;63.90;;;;;;4817231;29;20049;-86
2024/04/01 11:00:15;;;;;;;67.00;9.60;;;25.00;64.20;;;;;;4827351;29;20038;-88
2024/04/01 11:03:21;;;;;;;57.22;10.43;;;24.90;63.90;;;;;;4798214;29;20141;-84
2024/04/01 11:06:29;;;;;;;59.08;8.63;;;25.00;64.00;;;;;;4826328;29;20112;-84
2024/04/01 11:09:27;;;;;;;50.00;8.52;;;25.20;63.60;;;;;;4830475;29;20053;-87
2024/04/01 11:12:03;;;;;;;50.67;7.65;;;25.20;63.60;;;;;;4834187;29;20045;-87
2024/04/01 11:14:34;;;;;;;70.53;10.35;;;25.10;63.50;;;;;;4807533;29;20125;-84
2024/04/01 11:17:02;;;;;;;54.72;8.70;;;25.30;63.40;;;;;;4818820;29;20042;-85
2024/04/01 11:19:57;;;;;;;45.75;6.40;;;25.30;63.10;;;;;;4812188;29;20134;-87
2024/04/01 11:22:41;;;;;;;64.55;7.53;;;25.50;63.40;;;;;;4799762;29;20106;-85
2024/04/01 11:25:16;;;;;;;46.97;9.27;;;25.60;62.90;;;;;;4815773;29;20113;-82
2024/04/01 11:28:17;;;;;;;59.65;7.07;;;25.70;62.70;;;;;;4816855;29;20073;-87
2024/04/01 11:30:45;;;;;;;53.88;8.73;;;25.70;62.10;;;;;;4815599;29;20051;-86
2024/04/01 11:33:17;;;;;;;54.20;8.45;;;25.90;62.50;;;;;;4832448;29;20140;-90
2024/04/01 11:35:46;;;;;;;75.25;9.90;;;25.90;61.50;;;;;;4829802;29;20042;-86
2024/04/01 11:38:26;;;;;;;66.25;9.35;;;26.00;61.70;;;;;;4809825;29;20046;-85
2024/04/01 11:40:56;;;;;;;64.75;8.10;;;26.00;59.90;;;;;;4823508;29;20484;-85
2024/04/01 11:43:32;;;;;;;55.53;9.07;;;26.30;60.80;;;;;;4824542;29;20050;-88
2024/04/01 11:46:01;;;;;;;50.40;7.68;;;26.40;60.30;;;;;;4821845;29;20044;-85
2024/04/01 11:48:29;;;;;;;52.10;9.40;;;26.40;58.90;;;;;;4813534;29;20037;-90
2024/04/01 11:50:57;;;;;;;61.22;9.05;;;26.40;58.80;;;;;;4806434;29;20758;-83
2024/04/01 11:53:26;;;;;;;73.38;9.82;;;26.40;59.00;;;;;;4813777;29;20058;-90
2024/04/01 11:55:58;;;;;;;49.35;7.43;;;26.40;58.60;;;;;;4813332;29;20141;-93
2024/04/01 11:58:26;;;;;;;58.08;7.20;;;26.60;60.00;;;;;;4810317;29;20466;-85
2024/04/01 12:00:54;;;;;;;47.80;6.97;;;26.50;59.00;;;;;;4805726;29;20048;-89
2024/04/01 12:03:23;;;;;;;46.22;7.93;;;26.50;58.70;;;;;;4813064;29;20073;-84
2024/04/01 12:05:51;;;;;;;57.17;8.52;;;26.40;58.30;;;;;;4818428;29;20824;-85
2024/04/01 12:08:25;;;;;;;61.35;9.35;;;26.50;58.30;;;;;;4817861;29;20172;-89
2024/04/01 12:10:53;;;;;;;48.13;7.38;;;26.60;58.90;;;;;;4819501;29;20045;-88
2024/04/01 12:13:28;;;;;;;44.38;7.15;;;26.60;59.30;;;;;;4821115;29;20144;-90
2024/04/01 12:15:56;;;;;;;65.97;9.18;;;26.60;58.70;;;;;;4813963;29;20069;-85
2024/04/01 12:18:25;;;;;;;55.78;7.60;;;26.80;59.10;;;;;;4803848;29;20042;-83
2024/04/01 12:20:54;;;;;;;58.42;8.82;;;26.80;59.40;;;;;;4825305;29;20046;-87
2024/04/01 12:23:23;;;;;;;51.03;6.50;;;26.90;59.50;;;;;;4830307;29;20510;-87
2024/04/01 12:25:50;;;;;;;58.22;8.23;;;27.00;58.20;;;;;;4803078;29;20129;-87
2024/04/01 12:28:19;;;;;;;58.55;8.55;;;27.00;58.70;;;;;;4801493;29;20119;-85
2024/04/01 12:30:51;;;;;;;57.33;8.57;;;27.10;58.70;;;;;;4823113;29;20435;-84
2024/04/01 12:33:21;;;;;;;59.67;9.30;;;27.00;59.10;;;;;;4798064;29;20079;-87
2024/04/01 12:35:51;;;;;;;42.33;5.55;;;27.00;58.00;;;;;;4793656;29;20453;-93
2024/04/01 12:38:23;;;;;;;58.95;8.15;;;27.00;57.70;;;;;;4818385;29;20752;-89
2024/04/01 12:40:51;;;;;;;53.45;7.78;;;26.90;57.30;;;;;;4800445;29;20058;-86
2024/04/01 12:43:21;;;;;;;55.28;7.55;;;27.00;57.70;;;;;;4811538;29;20103;-89
2024/04/01 12:45:52;;;;;;;54.13;9.63;;;27.00;57.40;;;;;;4819528;29;20410;-93
2024/04/01 12:48:21;;;;;;;50.45;7.95;;;27.00;57.40;;;;;;4814846;29;20137;-93
2024/04/01 12:50:51;;;;;;;59.70;7.15;;;27.00;57.80;;;;;;4805443;29;20172;-86
2024/04/01 12:53:48;;;;;;;56.67;8.18;;;26.90;57.30;;;;;;4830913;29;20060;-85
2024/04/01 12:56:31;;;;;;;48.70;7.75;;;27.00;57.40;;;;;;4782306;29;20052;-90
2024/04/01 12:59:02;;;;;;;;;;;27.00;57.30;;;;;;4818619;29;20557;-88